Time;durP1;ratioP1;P1;durP2;ratioP2;P2;SDS_P1;SDS_P2;PMS_P1;PMS_P2;Temp;Humidity;BMP_temperature;BMP_pressure;BME280_temperature;BME280_humidity;BME280_pressure;Samples;Min_cycle;Max_cycle;Signal;HPM_P1;HPM_P2
2024/03/30 00:00:49;;;;;;;3.00;1.40;;;;;;;;;;5083218;28;20036;-64
2024/03/30 00:03:14;;;;;;;4.05;1.20;;;;;;;;;;5098209;28;20054;-65
2024/03/30 00:05:40;;;;;;;2.97;1.33;;;;;;;;;;5108545;28;20051;-65
2024/03/30 00:08:06;;;;;;;2.70;0.98;;;;;;;;;;5086814;28;20035;-65
2024/03/30 00:10:31;;;;;;;4.25;1.45;;;;;;;;;;5083261;28;20055;-65
2024/03/30 00:12:58;;;;;;;2.10;1.10;;;;;;;;;;5089233;28;20513;-65
2024/03/30 00:15:27;;;;;;;2.63;1.15;;;;;;;;;;5085743;28;20028;-59
2024/03/30 00:17:52;;;;;;;2.97;1.27;;;;;;;;;;5077448;28;20471;-60
2024/03/30 00:20:19;;;;;;;4.45;1.05;;;;;;;;;;5098974;28;20093;-60
2024/03/30 00:22:45;;;;;;;6.90;1.10;;;;;;;;;;5090488;28;20123;-59
2024/03/30 00:25:10;;;;;;;3.45;1.00;;;;;;;;;;5093788;28;20115;-59
2024/03/30 00:27:35;;;;;;;2.63;1.02;;;;;;;;;;5099056;28;20044;-59
2024/03/30 00:30:01;;;;;;;4.03;1.00;;;;;;;;;;5101604;28;20042;-59
2024/03/30 00:32:26;;;;;;;3.72;1.20;;;;;;;;;;5094370;28;20035;-60
2024/03/30 00:34:51;;;;;;;3.00;1.10;;;;;;;;;;5096063;28;20052;-61
2024/03/30 00:37:17;;;;;;;2.08;1.00;;;;;;;;;;5090985;28;20718;-59
2024/03/30 00:39:42;;;;;;;2.00;0.90;;;;;;;;;;5094133;28;20482;-59
2024/03/30 00:42:07;;;;;;;3.03;1.13;;;;;;;;;;5098526;28;20043;-60
2024/03/30 00:44:33;;;;;;;2.47;1.05;;;;;;;;;;5097920;28;20509;-60
2024/03/30 00:46:58;;;;;;;2.08;1.10;;;;;;;;;;5096296;28;20460;-58
2024/03/30 00:49:23;;;;;;;4.10;1.27;;;;;;;;;;5103926;28;20559;-60
2024/03/30 00:51:49;;;;;;;3.00;0.93;;;;;;;;;;5103543;28;20438;-59
2024/03/30 00:54:14;;;;;;;1.77;0.82;;;;;;;;;;5089804;28;20111;-59
2024/03/30 00:56:39;;;;;;;1.65;0.90;;;;;;;;;;5090737;28;20499;-60
2024/03/30 00:59:05;;;;;;;2.42;1.00;;;;;;;;;;5092513;28;20116;-59
2024/03/30 01:01:30;;;;;;;1.50;0.90;;;;;;;;;;5075360;28;20118;-61
2024/03/30 01:03:56;;;;;;;2.03;1.02;;;;;;;;;;5102870;28;20096;-62
2024/03/30 01:06:21;;;;;;;2.38;1.10;;;;;;;;;;5096857;28;20145;-61
2024/03/30 01:08:47;;;;;;;1.85;0.82;;;;;;;;;;5103039;28;20031;-61
2024/03/30 01:11:13;;;;;;;2.55;0.93;;;;;;;;;;5107365;28;20105;-64
2024/03/30 01:13:39;;;;;;;2.10;1.08;;;;;;;;;;5082492;28;20388;-64
2024/03/30 01:16:11;;;;;;;2.53;1.00;;;;;;;;;;5091349;28;20032;-63
2024/03/30 01:18:40;;;;;;;2.20;0.90;;;;;;;;;;5091615;28;20036;-63
2024/03/30 01:21:05;;;;;;;2.15;1.15;;;;;;;;;;5090256;28;20044;-64
2024/03/30 01:23:31;;;;;;;1.40;0.70;;;;;;;;;;5086333;28;20032;-63
2024/03/30 01:26:00;;;;;;;3.30;1.00;;;;;;;;;;5090526;28;20146;-64
2024/03/30 01:28:25;;;;;;;3.20;0.88;;;;;;;;;;5081016;28;20036;-65
2024/03/30 01:30:51;;;;;;;2.95;1.52;;;;;;;;;;5095490;28;20035;-59
2024/03/30 01:33:17;;;;;;;3.08;1.00;;;;;;;;;;5086009;28;20097;-59
2024/03/30 01:35:42;;;;;;;2.03;1.00;;;;;;;;;;5105760;28;20592;-59
2024/03/30 01:38:08;;;;;;;2.03;0.98;;;;;;;;;;5068823;28;20051;-59
2024/03/30 01:40:33;;;;;;;1.98;1.00;;;;;;;;;;5096457;28;20394;-60
2024/03/30 01:43:02;;;;;;;0.93;0.65;;;;;;;;;;5088231;28;20503;-59
2024/03/30 01:45:31;;;;;;;1.40;0.82;;;;;;;;;;5082013;28;20060;-59
2024/03/30 01:47:56;;;;;;;2.20;1.00;;;;;;;;;;5076574;28;20118;-59
2024/03/30 01:50:22;;;;;;;1.38;0.80;;;;;;;;;;5073366;28;20418;-59
2024/03/30 01:52:47;;;;;;;1.90;1.00;;;;;;;;;;5061258;28;20058;-59
2024/03/30 01:55:13;;;;;;;1.85;0.85;;;;;;;;;;5100111;28;20115;-60
2024/03/30 01:57:38;;;;;;;1.88;0.80;;;;;;;;;;5083222;28;20465;-59
2024/03/30 02:00:07;;;;;;;1.65;0.80;;;;;;;;;;5071488;28;20050;-60
2024/03/30 02:02:32;;;;;;;1.60;0.90;;;;;;;;;;5099071;28;20050;-59
2024/03/30 02:04:58;;;;;;;1.45;0.80;;;;;;;;;;5105143;28;20037;-60
2024/03/30 02:07:23;;;;;;;1.38;0.77;;;;;;;;;;5090810;28;20116;-59
2024/03/30 02:09:49;;;;;;;1.95;0.90;;;;;;;;;;5101598;28;20539;-59
2024/03/30 02:12:14;;;;;;;1.83;0.70;;;;;;;;;;5100929;28;20023;-59
2024/03/30 02:14:41;;;;;;;1.90;0.80;;;;;;;;;;5062822;28;20102;-59
2024/03/30 02:17:06;;;;;;;1.60;0.80;;;;;;;;;;5092473;28;20036;-62
2024/03/30 02:19:35;;;;;;;1.67;0.85;;;;;;;;;;5086285;28;20402;-59
2024/03/30 02:22:00;;;;;;;1.70;0.80;;;;;;;;;;5064448;28;20044;-59
2024/03/30 02:24:26;;;;;;;1.73;0.80;;;;;;;;;;5092925;28;20089;-59
2024/03/30 02:26:51;;;;;;;1.65;0.80;;;;;;;;;;5090558;28;20032;-59
2024/03/30 02:29:18;;;;;;;2.03;0.80;;;;;;;;;;5095368;28;20040;-59
2024/03/30 02:31:43;;;;;;;2.67;0.60;;;;;;;;;;5091595;28;20042;-60
2024/03/30 02:34:09;;;;;;;1.23;0.60;;;;;;;;;;5093330;28;20039;-59
2024/03/30 02:36:34;;;;;;;1.70;0.80;;;;;;;;;;5089749;28;20162;-59
2024/03/30 02:38:59;;;;;;;2.38;0.88;;;;;;;;;;5076441;28;20072;-60
2024/03/30 02:41:25;;;;;;;1.60;0.73;;;;;;;;;;5093672;28;20048;-59
2024/03/30 02:43:54;;;;;;;1.45;0.75;;;;;;;;;;5088232;28;20544;-60
2024/03/30 02:46:19;;;;;;;1.33;0.70;;;;;;;;;;5095679;28;20040;-59
2024/03/30 02:48:45;;;;;;;1.48;0.77;;;;;;;;;;5090519;28;20032;-59
2024/03/30 02:51:10;;;;;;;2.03;0.80;;;;;;;;;;5088377;28;20041;-59
2024/03/30 02:53:35;;;;;;;1.95;0.88;;;;;;;;;;5088731;28;20037;-61
2024/03/30 02:56:00;;;;;;;1.17;0.63;;;;;;;;;;5103893;28;20115;-62
2024/03/30 02:58:26;;;;;;;2.30;0.82;;;;;;;;;;5079621;28;20587;-61
2024/03/30 03:00:51;;;;;;;1.48;0.70;;;;;;;;;;5095317;28;20559;-61
2024/03/30 03:03:17;;;;;;;1.25;0.70;;;;;;;;;;5098382;28;20096;-61
2024/03/30 03:05:42;;;;;;;2.72;0.90;;;;;;;;;;5089529;28;20429;-61
2024/03/30 03:08:07;;;;;;;3.35;0.90;;;;;;;;;;5096923;28;20466;-61
2024/03/30 03:10:33;;;;;;;0.85;0.60;;;;;;;;;;5091190;28;20130;-61
2024/03/30 03:12:58;;;;;;;1.02;0.55;;;;;;;;;;5085933;28;20071;-61
2024/03/30 03:15:23;;;;;;;0.98;0.60;;;;;;;;;;5101075;28;20039;-61
2024/03/30 03:17:49;;;;;;;1.30;0.70;;;;;;;;;;5096443;28;20032;-60
2024/03/30 03:20:15;;;;;;;1.52;0.70;;;;;;;;;;5100357;28;20039;-61
2024/03/30 03:22:40;;;;;;;1.15;0.60;;;;;;;;;;5073719;28;20138;-61
2024/03/30 03:25:06;;;;;;;3.80;0.70;;;;;;;;;;5095658;28;20039;-61
2024/03/30 03:27:31;;;;;;;1.02;0.60;;;;;;;;;;5106698;28;20051;-60
2024/03/30 03:29:57;;;;;;;1.10;0.55;;;;;;;;;;5086948;28;20052;-60
2024/03/30 03:32:22;;;;;;;1.13;0.60;;;;;;;;;;5092230;28;20032;-58
2024/03/30 03:34:48;;;;;;;1.20;0.63;;;;;;;;;;5095689;28;20042;-61
2024/03/30 03:37:13;;;;;;;0.82;0.50;;;;;;;;;;5090068;28;20044;-61
2024/03/30 03:39:38;;;;;;;0.82;0.45;;;;;;;;;;5092496;28;20039;-60
2024/03/30 03:42:04;;;;;;;1.63;0.77;;;;;;;;;;5094367;28;20060;-61
2024/03/30 03:44:29;;;;;;;1.25;0.70;;;;;;;;;;5097510;28;20043;-60
2024/03/30 03:46:55;;;;;;;1.00;0.60;;;;;;;;;;5086474;28;20143;-65
2024/03/30 03:49:20;;;;;;;1.30;0.60;;;;;;;;;;5088185;28;20112;-65
2024/03/30 03:51:45;;;;;;;1.25;0.68;;;;;;;;;;5087064;28;20119;-65
2024/03/30 03:54:11;;;;;;;0.88;0.60;;;;;;;;;;5095692;28;20055;-65
2024/03/30 03:56:36;;;;;;;1.20;0.70;;;;;;;;;;5096379;28;20063;-65
2024/03/30 03:59:01;;;;;;;1.98;0.68;;;;;;;;;;5098645;28;20032;-65
2024/03/30 04:01:26;;;;;;;0.77;0.50;;;;;;;;;;5100858;28;20032;-65
2024/03/30 04:03:52;;;;;;;1.48;0.60;;;;;;;;;;5073498;28;20044;-59
2024/03/30 04:06:17;;;;;;;1.65;0.70;;;;;;;;;;5086823;28;20024;-60
2024/03/30 04:08:45;;;;;;;2.30;0.70;;;;;;;;;;5097162;28;20036;-60
2024/03/30 04:11:11;;;;;;;0.88;0.60;;;;;;;;;;5085404;28;20039;-60
2024/03/30 04:13:36;;;;;;;0.90;0.60;;;;;;;;;;5094991;28;20054;-64
2024/03/30 04:16:05;;;;;;;0.80;0.60;;;;;;;;;;5088910;28;20020;-64
2024/03/30 04:18:32;;;;;;;1.30;0.70;;;;;;;;;;5090346;28;20363;-64
2024/03/30 04:21:01;;;;;;;2.55;0.70;;;;;;;;;;5086289;28;20039;-65
2024/03/30 04:23:31;;;;;;;1.98;0.65;;;;;;;;;;5069041;28;20114;-64
2024/03/30 04:26:03;;;;;;;0.98;0.60;;;;;;;;;;5071407;28;20058;-59
2024/03/30 04:28:28;;;;;;;1.23;0.57;;;;;;;;;;5092243;28;20082;-59
2024/03/30 04:30:58;;;;;;;0.88;0.60;;;;;;;;;;5090279;28;20075;-60
2024/03/30 04:33:23;;;;;;;0.68;0.50;;;;;;;;;;5056532;28;20043;-59
2024/03/30 04:35:56;;;;;;;0.70;0.40;;;;;;;;;;5094376;28;20048;-60
2024/03/30 04:38:23;;;;;;;1.63;0.70;;;;;;;;;;5069422;28;20041;-60
2024/03/30 04:41:00;;;;;;;1.10;0.52;;;;;;;;;;5070769;28;20052;-60
2024/03/30 04:43:27;;;;;;;0.60;0.43;;;;;;;;;;5071456;28;20036;-59
2024/03/30 04:45:52;;;;;;;1.17;0.60;;;;;;;;;;5068959;28;20027;-59
2024/03/30 04:48:18;;;;;;;1.40;0.60;;;;;;;;;;5082717;28;20101;-60
2024/03/30 04:50:44;;;;;;;2.42;0.52;;;;;;;;;;5092143;28;20085;-59
2024/03/30 04:53:12;;;;;;;1.42;0.70;;;;;;;;;;5094845;28;20111;-60
2024/03/30 04:55:37;;;;;;;0.40;0.40;;;;;;;;;;5074355;28;20181;-60
2024/03/30 04:58:03;;;;;;;2.80;0.70;;;;;;;;;;5097616;28;20119;-60
2024/03/30 05:00:28;;;;;;;1.20;0.57;;;;;;;;;;5100131;28;20117;-59
2024/03/30 05:02:53;;;;;;;0.95;0.60;;;;;;;;;;5098735;28;20035;-59
2024/03/30 05:05:19;;;;;;;1.05;0.60;;;;;;;;;;5110878;28;20043;-60
2024/03/30 05:07:44;;;;;;;1.15;0.60;;;;;;;;;;5082615;28;20032;-60
2024/03/30 05:10:09;;;;;;;1.83;0.77;;;;;;;;;;5093614;28;20028;-60
2024/03/30 05:12:35;;;;;;;3.40;0.60;;;;;;;;;;5093411;28;20051;-59
2024/03/30 05:15:00;;;;;;;3.35;0.60;;;;;;;;;;5078750;28;20039;-60
2024/03/30 05:17:25;;;;;;;1.27;0.60;;;;;;;;;;5086938;28;20035;-60
2024/03/30 05:22:34;;;;;;;;;;;;;;;;;;5099516;28;20157;-59
2024/03/30 05:25:00;;;;;;;0.50;0.40;;;;;;;;;;5091340;28;20015;-59
2024/03/30 05:27:25;;;;;;;0.68;0.47;;;;;;;;;;5091722;28;20032;-59
2024/03/30 05:29:50;;;;;;;0.98;0.40;;;;;;;;;;5091231;28;20040;-59
2024/03/30 05:32:15;;;;;;;2.30;0.75;;;;;;;;;;5090957;28;20178;-60
2024/03/30 05:34:41;;;;;;;1.55;0.60;;;;;;;;;;5086006;28;20043;-60
2024/03/30 05:37:06;;;;;;;0.70;0.50;;;;;;;;;;5099676;28;20036;-60
2024/03/30 05:39:32;;;;;;;0.90;0.57;;;;;;;;;;5097339;28;20043;-60
2024/03/30 05:41:57;;;;;;;0.80;0.50;;;;;;;;;;5090720;28;20052;-60
2024/03/30 05:44:22;;;;;;;1.55;0.60;;;;;;;;;;5090464;28;20047;-60
2024/03/30 05:46:47;;;;;;;1.30;0.60;;;;;;;;;;5092497;28;20042;-60
2024/03/30 05:49:13;;;;;;;1.13;0.60;;;;;;;;;;5092871;28;20110;-59
2024/03/30 05:51:38;;;;;;;1.23;0.57;;;;;;;;;;5092850;28;20194;-60
2024/03/30 05:54:03;;;;;;;1.30;0.65;;;;;;;;;;5095009;28;20083;-60
2024/03/30 05:56:29;;;;;;;1.42;0.50;;;;;;;;;;5105080;28;20028;-60
2024/03/30 05:58:54;;;;;;;1.30;0.60;;;;;;;;;;5086556;28;20023;-59
2024/03/30 06:01:19;;;;;;;1.80;0.55;;;;;;;;;;5092190;28;20036;-60
2024/03/30 06:03:45;;;;;;;1.15;0.60;;;;;;;;;;5096955;28;20031;-59
2024/03/30 06:06:10;;;;;;;1.00;0.60;;;;;;;;;;5092866;28;20032;-60
2024/03/30 06:08:36;;;;;;;1.30;0.70;;;;;;;;;;5093026;28;20036;-60
2024/03/30 06:11:01;;;;;;;1.40;0.68;;;;;;;;;;5092524;28;20117;-60
2024/03/30 06:13:26;;;;;;;1.58;0.60;;;;;;;;;;5092213;28;20399;-60
2024/03/30 06:16:05;;;;;;;1.27;0.63;;;;;;;;;;5090568;28;20483;-60
2024/03/30 06:18:30;;;;;;;0.70;0.50;;;;;;;;;;5090211;28;20044;-60
2024/03/30 06:20:55;;;;;;;0.82;0.50;;;;;;;;;;5099219;28;20047;-60
2024/03/30 06:23:21;;;;;;;1.25;0.60;;;;;;;;;;5091491;28;20061;-60
2024/03/30 06:25:46;;;;;;;1.10;0.50;;;;;;;;;;5091992;28;20030;-59
2024/03/30 06:28:11;;;;;;;1.45;0.60;;;;;;;;;;5097204;28;20046;-60
2024/03/30 06:30:37;;;;;;;0.80;0.47;;;;;;;;;;5093393;28;20044;-59
2024/03/30 06:33:02;;;;;;;0.80;0.52;;;;;;;;;;5088888;28;20040;-65
2024/03/30 06:35:30;;;;;;;0.98;0.60;;;;;;;;;;5087068;28;20043;-65
2024/03/30 06:37:55;;;;;;;0.88;0.55;;;;;;;;;;5094686;28;20036;-65
2024/03/30 06:45:48;;;;;;;0.40;0.40;;;;;;;;;;5087327;28;20008;-60
2024/03/30 06:48:13;;;;;;;0.93;0.52;;;;;;;;;;5088067;28;20091;-59
2024/03/30 06:50:39;;;;;;;1.08;0.60;;;;;;;;;;5094990;28;20053;-59
2024/03/30 06:53:04;;;;;;;1.17;0.63;;;;;;;;;;5099978;28;20788;-60
2024/03/30 06:55:29;;;;;;;1.88;0.77;;;;;;;;;;5082934;28;20051;-60
2024/03/30 06:57:55;;;;;;;1.48;0.60;;;;;;;;;;5089825;28;20043;-59
2024/03/30 07:00:20;;;;;;;0.52;0.43;;;;;;;;;;5088836;28;20033;-60
2024/03/30 07:02:45;;;;;;;0.98;0.60;;;;;;;;;;5094962;28;20131;-59
2024/03/30 07:05:10;;;;;;;0.50;0.50;;;;;;;;;;5094679;28;20050;-59
2024/03/30 07:07:36;;;;;;;0.98;0.60;;;;;;;;;;5093153;28;20474;-64
2024/03/30 07:10:02;;;;;;;0.95;0.60;;;;;;;;;;5079619;28;20479;-64
2024/03/30 07:12:27;;;;;;;1.13;0.55;;;;;;;;;;5089333;28;20070;-65
2024/03/30 07:14:53;;;;;;;1.05;0.60;;;;;;;;;;5091257;28;20063;-63
2024/03/30 07:17:18;;;;;;;1.38;0.60;;;;;;;;;;5090425;28;20039;-64
2024/03/30 07:19:43;;;;;;;1.25;0.60;;;;;;;;;;5089501;28;20032;-64
2024/03/30 07:22:09;;;;;;;1.02;0.45;;;;;;;;;;5083621;28;20036;-64
2024/03/30 07:24:34;;;;;;;0.85;0.60;;;;;;;;;;5089399;28;20032;-64
2024/03/30 07:26:59;;;;;;;1.17;0.60;;;;;;;;;;5082528;28;20040;-64
2024/03/30 07:29:25;;;;;;;0.82;0.50;;;;;;;;;;5083132;28;20498;-60
2024/03/30 07:31:50;;;;;;;1.00;0.60;;;;;;;;;;5081289;28;20483;-59
2024/03/30 07:34:15;;;;;;;1.50;0.60;;;;;;;;;;5092182;28;20031;-59
2024/03/30 07:36:41;;;;;;;0.90;0.60;;;;;;;;;;5096169;28;20040;-58
2024/03/30 07:39:07;;;;;;;0.50;0.40;;;;;;;;;;5090053;28;20360;-58
2024/03/30 07:41:32;;;;;;;0.88;0.50;;;;;;;;;;5082570;28;20040;-59
2024/03/30 07:43:58;;;;;;;0.98;0.47;;;;;;;;;;5102057;28;20084;-60
2024/03/30 07:46:23;;;;;;;2.47;0.50;;;;;;;;;;5091285;28;20563;-59
2024/03/30 07:48:48;;;;;;;1.77;0.60;;;;;;;;;;5087889;28;20679;-59
2024/03/30 07:51:14;;;;;;;0.95;0.55;;;;;;;;;;5096492;28;20483;-58
2024/03/30 07:53:39;;;;;;;0.95;0.50;;;;;;;;;;5091826;28;20502;-59
2024/03/30 07:56:04;;;;;;;1.10;0.57;;;;;;;;;;5094427;28;20038;-60
2024/03/30 07:58:30;;;;;;;1.35;0.60;;;;;;;;;;5091301;28;20032;-59
2024/03/30 08:00:55;;;;;;;2.15;0.70;;;;;;;;;;5086465;28;20040;-64
2024/03/30 08:03:21;;;;;;;1.33;0.60;;;;;;;;;;5079474;28;20038;-64
2024/03/30 08:05:57;;;;;;;2.90;0.70;;;;;;;;;;5092172;28;20035;-64
2024/03/30 08:08:24;;;;;;;1.67;0.70;;;;;;;;;;5096091;28;20089;-63
2024/03/30 08:10:58;;;;;;;1.40;0.60;;;;;;;;;;5059789;28;20445;-63
2024/03/30 08:13:25;;;;;;;2.72;0.70;;;;;;;;;;5089840;28;20119;-59
2024/03/30 08:15:51;;;;;;;2.03;0.70;;;;;;;;;;5087429;28;20578;-59
2024/03/30 08:18:17;;;;;;;2.25;0.43;;;;;;;;;;5084743;28;20115;-59
2024/03/30 08:20:43;;;;;;;7.82;0.68;;;;;;;;;;5088299;28;20114;-60
2024/03/30 08:23:08;;;;;;;4.05;1.10;;;;;;;;;;5088224;28;20110;-59
2024/03/30 08:25:34;;;;;;;1.85;0.50;;;;;;;;;;5096803;28;20065;-60
2024/03/30 08:28:01;;;;;;;1.38;0.50;;;;;;;;;;5093012;28;20039;-61
2024/03/30 08:30:27;;;;;;;1.40;0.68;;;;;;;;;;5099516;28;20042;-60
2024/03/30 08:32:53;;;;;;;1.60;0.45;;;;;;;;;;5091124;28;20090;-60
2024/03/30 08:35:18;;;;;;;3.03;0.70;;;;;;;;;;5086588;28;20067;-61
2024/03/30 08:37:44;;;;;;;1.88;0.65;;;;;;;;;;5092849;28;20028;-60
2024/03/30 08:40:09;;;;;;;2.42;0.60;;;;;;;;;;5097298;28;20391;-60
2024/03/30 08:42:35;;;;;;;2.67;0.63;;;;;;;;;;5086033;28;20572;-65
2024/03/30 08:45:00;;;;;;;2.00;0.60;;;;;;;;;;5094422;28;20032;-64
2024/03/30 08:47:26;;;;;;;1.95;0.60;;;;;;;;;;4959670;28;20205;-62
2024/03/30 08:49:52;;;;;;;2.45;1.00;;;;;;;;;;4913258;28;20283;-62
2024/03/30 08:52:20;;;;;;;2.53;0.50;;;;;;;;;;4919320;28;20172;-62
2024/03/30 08:54:46;;;;;;;2.58;0.70;;;;;;;;;;4925565;28;20254;-61
2024/03/30 08:57:12;;;;;;;2.25;0.57;;;;;;;;;;4928679;28;20296;-62
2024/03/30 08:59:38;;;;;;;1.33;0.55;;;;;;;;;;4919641;28;20186;-59
2024/03/30 09:02:04;;;;;;;3.22;0.70;;;;;;;;;;4918191;28;20557;-59
2024/03/30 09:04:31;;;;;;;1.83;0.60;;;;;;;;;;4912289;28;20186;-59
2024/03/30 09:06:58;;;;;;;2.75;0.70;;;;;;;;;;4903313;28;20277;-56
2024/03/30 21:51:00;;;;;;;4.35;1.65;;;;;;;;;;5249793;22;20144;-60
2024/03/30 21:53:26;;;;;;;5.00;1.92;;;;;;;;;;5087510;28;20044;-55
2024/03/30 21:55:53;;;;;;;4.00;1.55;;;;;;;;;;5104935;27;20049;-58
2024/03/30 21:58:19;;;;;;;6.40;1.67;;;;;;;;;;5099530;28;20088;-59
2024/03/30 22:00:45;;;;;;;4.18;1.60;;;;;;;;;;5103792;28;20031;-62
2024/03/30 22:03:10;;;;;;;3.33;1.58;;;;;;;;;;5105978;28;20046;-57
2024/03/30 22:05:36;;;;;;;3.20;1.58;;;;;;;;;;5103548;28;20059;-62
2024/03/30 22:08:09;;;;;;;5.97;1.38;;;;;;;;;;5090899;28;20513;-58
2024/03/30 22:10:38;;;;;;;3.78;1.60;;;;;;;;;;5084805;28;20035;-59
2024/03/30 22:13:08;;;;;;;4.30;1.75;;;;;;;;;;5080097;28;20494;-60
2024/03/30 22:15:34;;;;;;;4.20;1.63;;;;;;;;;;5096019;28;20024;-56
2024/03/30 22:18:01;;;;;;;4.75;1.65;;;;;;;;;;5104043;27;20035;-61
2024/03/30 22:20:26;;;;;;;3.35;1.58;;;;;;;;;;5101136;28;20481;-60
2024/03/30 22:22:52;;;;;;;4.43;1.80;;;;;;;;;;5116798;27;20032;-58
2024/03/30 22:25:19;;;;;;;4.55;1.55;;;;;;;;;;5099536;28;20386;-54
2024/03/30 22:27:45;;;;;;;4.30;1.65;;;;;;;;;;5102670;28;20115;-58
2024/03/30 22:30:12;;;;;;;5.32;1.60;;;;;;;;;;5111193;27;20415;-62
2024/03/30 22:32:38;;;;;;;3.72;1.75;;;;;;;;;;5069839;28;20532;-60
2024/03/30 22:35:05;;;;;;;3.83;1.63;;;;;;;;;;5088843;27;20134;-61
2024/03/30 22:37:30;;;;;;;3.05;1.40;;;;;;;;;;5076906;28;20110;-57
2024/03/30 22:39:56;;;;;;;3.70;1.55;;;;;;;;;;5104242;28;20111;-59
2024/03/30 22:42:22;;;;;;;3.80;1.38;;;;;;;;;;5107067;27;20075;-60
2024/03/30 22:44:47;;;;;;;2.85;1.38;;;;;;;;;;5096524;28;20032;-60
2024/03/30 22:47:13;;;;;;;4.15;1.85;;;;;;;;;;5097899;28;20032;-61
2024/03/30 22:49:38;;;;;;;4.70;1.27;;;;;;;;;;5105636;27;20130;-60
2024/03/30 22:52:05;;;;;;;3.30;1.60;;;;;;;;;;5096828;28;20051;-62
2024/03/30 22:54:31;;;;;;;2.55;1.42;;;;;;;;;;5059800;28;20034;-58
2024/03/30 22:56:56;;;;;;;3.05;1.58;;;;;;;;;;5067641;28;20417;-57
2024/03/30 22:59:23;;;;;;;5.20;1.40;;;;;;;;;;5092050;28;20036;-58
2024/03/30 23:01:55;;;;;;;5.90;1.45;;;;;;;;;;5125215;27;20384;-60
2024/03/30 23:04:20;;;;;;;3.92;1.35;;;;;;;;;;5124971;27;20050;-61
2024/03/30 23:06:48;;;;;;;2.40;1.30;;;;;;;;;;5126028;27;20027;-59
2024/03/30 23:09:13;;;;;;;2.80;1.40;;;;;;;;;;5108060;27;20114;-60
2024/03/30 23:11:39;;;;;;;2.60;1.27;;;;;;;;;;5123889;28;20537;-57
2024/03/30 23:14:04;;;;;;;2.30;1.42;;;;;;;;;;5125350;27;20513;-61
2024/03/30 23:16:31;;;;;;;2.33;1.17;;;;;;;;;;5126970;27;20041;-58
2024/03/30 23:18:56;;;;;;;3.20;1.30;;;;;;;;;;5122486;27;21362;-57
2024/03/30 23:21:22;;;;;;;2.67;1.30;;;;;;;;;;5099889;28;20028;-56
2024/03/30 23:23:47;;;;;;;3.00;1.23;;;;;;;;;;5114075;27;20064;-62
2024/03/30 23:26:12;;;;;;;2.63;1.40;;;;;;;;;;5126959;27;20392;-60
2024/03/30 23:28:38;;;;;;;2.47;1.45;;;;;;;;;;5124205;27;20042;-60
2024/03/30 23:31:03;;;;;;;4.15;1.50;;;;;;;;;;5116598;27;20654;-59
2024/03/30 23:33:28;;;;;;;3.97;1.60;;;;;;;;;;5126332;27;20523;-59
2024/03/30 23:35:57;;;;;;;2.50;1.30;;;;;;;;;;5126475;27;20410;-60
2024/03/30 23:38:22;;;;;;;2.72;1.20;;;;;;;;;;5123180;27;20038;-58
2024/03/30 23:40:47;;;;;;;6.35;1.50;;;;;;;;;;5126181;27;20036;-59
2024/03/30 23:43:13;;;;;;;6.82;2.83;;;;;;;;;;5124083;27;20050;-61
2024/03/30 23:45:39;;;;;;;2.65;1.30;;;;;;;;;;5120925;27;20413;-59
2024/03/30 23:48:08;;;;;;;4.43;1.30;;;;;;;;;;5124306;27;20047;-54
2024/03/30 23:50:34;;;;;;;4.47;1.50;;;;;;;;;;5124888;27;20096;-58
2024/03/30 23:53:00;;;;;;;2.90;1.20;;;;;;;;;;5126283;27;20489;-58
2024/03/30 23:55:26;;;;;;;5.90;1.50;;;;;;;;;;5108864;28;20151;-59
2024/03/30 23:57:51;;;;;;;1.98;1.10;;;;;;;;;;5125577;28;20513;-56
